sensor_id;sensor_type;location;lat;lon;timestamp;P1;durP1;ratioP1;P2;durP2;ratioP2
10446;SDS011;5271;44.422;26.092;2023-04-06T00:00:07;1.20;;;1.20;;
10446;SDS011;5271;44.422;26.092;2023-04-06T00:02:35;1.20;;;1.20;;
10446;SDS011;5271;44.422;26.092;2023-04-06T00:05:02;1.20;;;1.20;;
10446;SDS011;5271;44.422;26.092;2023-04-06T00:07:29;1.13;;;1.13;;
10446;SDS011;5271;44.422;26.092;2023-04-06T00:09:58;1.10;;;1.10;;
10446;SDS011;5271;44.422;26.092;2023-04-06T00:12:25;1.17;;;1.17;;
10446;SDS011;5271;44.422;26.092;2023-04-06T00:14:53;1.20;;;1.20;;
10446;SDS011;5271;44.422;26.092;2023-04-06T00:17:20;1.10;;;1.10;;
10446;SDS011;5271;44.422;26.092;2023-04-06T00:19:47;1.20;;;1.20;;
10446;SDS011;5271;44.422;26.092;2023-04-06T00:22:13;1.20;;;1.20;;
10446;SDS011;5271;44.422;26.092;2023-04-06T00:24:40;1.10;;;1.10;;
10446;SDS011;5271;44.422;26.092;2023-04-06T00:27:07;1.20;;;1.20;;
10446;SDS011;5271;44.422;26.092;2023-04-06T00:29:34;1.20;;;1.20;;
10446;SDS011;5271;44.422;26.092;2023-04-06T00:32:03;1.30;;;1.30;;
10446;SDS011;5271;44.422;26.092;2023-04-06T00:34:30;1.20;;;1.20;;
10446;SDS011;5271;44.422;26.092;2023-04-06T00:36:57;1.20;;;1.20;;
10446;SDS011;5271;44.422;26.092;2023-04-06T00:39:24;1.10;;;1.10;;
10446;SDS011;5271;44.422;26.092;2023-04-06T00:41:51;1.20;;;1.20;;
10446;SDS011;5271;44.422;26.092;2023-04-06T00:44:20;1.20;;;1.20;;
10446;SDS011;5271;44.422;26.092;2023-04-06T00:46:48;1.20;;;1.20;;
10446;SDS011;5271;44.422;26.092;2023-04-06T00:49:16;1.20;;;1.20;;
10446;SDS011;5271;44.422;26.092;2023-04-06T00:51:43;1.10;;;1.10;;
10446;SDS011;5271;44.422;26.092;2023-04-06T00:54:10;1.20;;;1.20;;
10446;SDS011;5271;44.422;26.092;2023-04-06T00:56:36;1.20;;;1.20;;
10446;SDS011;5271;44.422;26.092;2023-04-06T00:59:03;1.10;;;1.10;;
10446;SDS011;5271;44.422;26.092;2023-04-06T01:01:30;1.20;;;1.20;;
10446;SDS011;5271;44.422;26.092;2023-04-06T01:03:58;1.20;;;1.20;;
10446;SDS011;5271;44.422;26.092;2023-04-06T01:06:26;1.20;;;1.20;;
10446;SDS011;5271;44.422;26.092;2023-04-06T01:08:53;1.20;;;1.20;;
10446;SDS011;5271;44.422;26.092;2023-04-06T01:11:20;1.20;;;1.20;;
10446;SDS011;5271;44.422;26.092;2023-04-06T01:13:47;1.20;;;1.20;;
10446;SDS011;5271;44.422;26.092;2023-04-06T01:16:14;1.20;;;1.20;;
10446;SDS011;5271;44.422;26.092;2023-04-06T01:18:41;1.27;;;1.27;;
10446;SDS011;5271;44.422;26.092;2023-04-06T01:21:08;1.20;;;1.20;;
10446;SDS011;5271;44.422;26.092;2023-04-06T01:23:41;1.20;;;1.20;;
10446;SDS011;5271;44.422;26.092;2023-04-06T01:26:09;1.20;;;1.20;;
10446;SDS011;5271;44.422;26.092;2023-04-06T01:28:36;1.20;;;1.20;;
10446;SDS011;5271;44.422;26.092;2023-04-06T01:31:03;1.30;;;1.30;;
10446;SDS011;5271;44.422;26.092;2023-04-06T01:33:30;1.20;;;1.20;;
10446;SDS011;5271;44.422;26.092;2023-04-06T01:35:57;1.20;;;1.20;;
10446;SDS011;5271;44.422;26.092;2023-04-06T01:38:24;1.30;;;1.30;;
10446;SDS011;5271;44.422;26.092;2023-04-06T01:40:52;1.20;;;1.20;;
10446;SDS011;5271;44.422;26.092;2023-04-06T01:43:19;1.20;;;1.20;;
10446;SDS011;5271;44.422;26.092;2023-04-06T01:45:46;1.20;;;1.20;;
10446;SDS011;5271;44.422;26.092;2023-04-06T01:48:13;1.20;;;1.20;;
10446;SDS011;5271;44.422;26.092;2023-04-06T01:50:40;1.10;;;1.10;;
10446;SDS011;5271;44.422;26.092;2023-04-06T01:53:07;1.20;;;1.20;;
10446;SDS011;5271;44.422;26.092;2023-04-06T01:55:33;1.20;;;1.20;;
10446;SDS011;5271;44.422;26.092;2023-04-06T01:58:02;1.30;;;1.30;;
10446;SDS011;5271;44.422;26.092;2023-04-06T02:00:29;1.20;;;1.20;;
10446;SDS011;5271;44.422;26.092;2023-04-06T02:02:55;1.30;;;1.30;;
10446;SDS011;5271;44.422;26.092;2023-04-06T02:05:22;1.30;;;1.30;;
10446;SDS011;5271;44.422;26.092;2023-04-06T02:07:49;1.30;;;1.30;;
10446;SDS011;5271;44.422;26.092;2023-04-06T02:10:16;1.37;;;1.37;;
10446;SDS011;5271;44.422;26.092;2023-04-06T02:12:43;1.30;;;1.30;;
10446;SDS011;5271;44.422;26.092;2023-04-06T02:15:11;1.30;;;1.30;;
10446;SDS011;5271;44.422;26.092;2023-04-06T02:17:39;1.30;;;1.30;;
10446;SDS011;5271;44.422;26.092;2023-04-06T02:20:06;1.30;;;1.30;;
10446;SDS011;5271;44.422;26.092;2023-04-06T02:22:34;1.30;;;1.30;;
10446;SDS011;5271;44.422;26.092;2023-04-06T02:25:01;1.40;;;1.40;;
10446;SDS011;5271;44.422;26.092;2023-04-06T02:27:28;1.40;;;1.40;;
10446;SDS011;5271;44.422;26.092;2023-04-06T02:29:55;1.40;;;1.40;;
10446;SDS011;5271;44.422;26.092;2023-04-06T02:32:23;1.40;;;1.40;;
10446;SDS011;5271;44.422;26.092;2023-04-06T02:34:51;1.40;;;1.40;;
10446;SDS011;5271;44.422;26.092;2023-04-06T02:37:18;1.40;;;1.40;;
10446;SDS011;5271;44.422;26.092;2023-04-06T02:39:45;1.50;;;1.50;;
10446;SDS011;5271;44.422;26.092;2023-04-06T02:42:12;1.50;;;1.50;;
10446;SDS011;5271;44.422;26.092;2023-04-06T02:44:40;1.40;;;1.40;;
10446;SDS011;5271;44.422;26.092;2023-04-06T02:47:07;1.33;;;1.33;;
10446;SDS011;5271;44.422;26.092;2023-04-06T02:49:35;1.40;;;1.40;;
10446;SDS011;5271;44.422;26.092;2023-04-06T02:52:02;1.30;;;1.30;;
10446;SDS011;5271;44.422;26.092;2023-04-06T02:54:29;1.30;;;1.30;;
10446;SDS011;5271;44.422;26.092;2023-04-06T02:56:56;1.30;;;1.30;;
10446;SDS011;5271;44.422;26.092;2023-04-06T02:59:23;1.40;;;1.40;;
10446;SDS011;5271;44.422;26.092;2023-04-06T03:01:50;1.40;;;1.40;;
10446;SDS011;5271;44.422;26.092;2023-04-06T03:04:17;1.50;;;1.50;;
10446;SDS011;5271;44.422;26.092;2023-04-06T03:06:46;1.40;;;1.40;;
10446;SDS011;5271;44.422;26.092;2023-04-06T03:09:12;1.37;;;1.37;;
10446;SDS011;5271;44.422;26.092;2023-04-06T03:11:40;1.40;;;1.40;;
10446;SDS011;5271;44.422;26.092;2023-04-06T03:14:07;1.40;;;1.40;;
10446;SDS011;5271;44.422;26.092;2023-04-06T03:16:33;1.40;;;1.40;;
10446;SDS011;5271;44.422;26.092;2023-04-06T03:19:00;1.40;;;1.40;;
10446;SDS011;5271;44.422;26.092;2023-04-06T03:21:27;1.50;;;1.50;;
10446;SDS011;5271;44.422;26.092;2023-04-06T03:23:55;1.40;;;1.40;;
10446;SDS011;5271;44.422;26.092;2023-04-06T03:26:22;1.40;;;1.40;;
10446;SDS011;5271;44.422;26.092;2023-04-06T03:28:49;1.40;;;1.40;;
10446;SDS011;5271;44.422;26.092;2023-04-06T03:31:16;1.40;;;1.40;;
10446;SDS011;5271;44.422;26.092;2023-04-06T03:33:43;1.50;;;1.50;;
10446;SDS011;5271;44.422;26.092;2023-04-06T03:36:10;1.37;;;1.37;;
10446;SDS011;5271;44.422;26.092;2023-04-06T03:38:36;1.40;;;1.40;;
10446;SDS011;5271;44.422;26.092;2023-04-06T03:41:05;1.40;;;1.40;;
10446;SDS011;5271;44.422;26.092;2023-04-06T03:43:31;1.40;;;1.40;;
10446;SDS011;5271;44.422;26.092;2023-04-06T03:45:58;1.50;;;1.50;;
10446;SDS011;5271;44.422;26.092;2023-04-06T03:48:25;1.40;;;1.40;;
10446;SDS011;5271;44.422;26.092;2023-04-06T03:50:52;1.40;;;1.40;;
10446;SDS011;5271;44.422;26.092;2023-04-06T03:53:19;1.50;;;1.50;;
10446;SDS011;5271;44.422;26.092;2023-04-06T03:55:46;1.50;;;1.50;;
10446;SDS011;5271;44.422;26.092;2023-04-06T03:58:14;1.50;;;1.50;;
10446;SDS011;5271;44.422;26.092;2023-04-06T04:00:41;1.50;;;1.50;;
10446;SDS011;5271;44.422;26.092;2023-04-06T04:03:07;1.50;;;1.50;;
10446;SDS011;5271;44.422;26.092;2023-04-06T04:05:34;1.50;;;1.50;;
10446;SDS011;5271;44.422;26.092;2023-04-06T04:08:01;1.40;;;1.40;;
10446;SDS011;5271;44.422;26.092;2023-04-06T04:10:28;1.40;;;1.40;;
10446;SDS011;5271;44.422;26.092;2023-04-06T04:12:55;1.50;;;1.50;;
10446;SDS011;5271;44.422;26.092;2023-04-06T04:15:23;1.40;;;1.40;;
10446;SDS011;5271;44.422;26.092;2023-04-06T04:17:50;1.40;;;1.40;;
10446;SDS011;5271;44.422;26.092;2023-04-06T04:20:17;1.50;;;1.50;;
10446;SDS011;5271;44.422;26.092;2023-04-06T04:22:43;1.40;;;1.40;;
10446;SDS011;5271;44.422;26.092;2023-04-06T04:25:10;1.50;;;1.50;;
10446;SDS011;5271;44.422;26.092;2023-04-06T04:27:37;1.50;;;1.50;;
10446;SDS011;5271;44.422;26.092;2023-04-06T04:30:04;1.47;;;1.47;;
10446;SDS011;5271;44.422;26.092;2023-04-06T04:32:34;1.50;;;1.50;;
10446;SDS011;5271;44.422;26.092;2023-04-06T04:35:01;1.50;;;1.50;;
10446;SDS011;5271;44.422;26.092;2023-04-06T04:37:28;1.50;;;1.50;;
10446;SDS011;5271;44.422;26.092;2023-04-06T04:39:55;1.50;;;1.50;;
10446;SDS011;5271;44.422;26.092;2023-04-06T04:42:22;1.50;;;1.50;;
10446;SDS011;5271;44.422;26.092;2023-04-06T04:44:49;1.43;;;1.43;;
10446;SDS011;5271;44.422;26.092;2023-04-06T04:47:16;1.50;;;1.50;;
10446;SDS011;5271;44.422;26.092;2023-04-06T04:49:44;1.50;;;1.50;;
10446;SDS011;5271;44.422;26.092;2023-04-06T04:52:11;1.40;;;1.40;;
10446;SDS011;5271;44.422;26.092;2023-04-06T04:54:37;1.50;;;1.50;;
10446;SDS011;5271;44.422;26.092;2023-04-06T04:57:06;1.50;;;1.50;;
10446;SDS011;5271;44.422;26.092;2023-04-06T04:59:33;1.50;;;1.50;;
10446;SDS011;5271;44.422;26.092;2023-04-06T05:02:00;1.40;;;1.40;;
10446;SDS011;5271;44.422;26.092;2023-04-06T05:04:27;1.50;;;1.50;;
10446;SDS011;5271;44.422;26.092;2023-04-06T05:07:03;1.50;;;1.50;;
10446;SDS011;5271;44.422;26.092;2023-04-06T05:09:30;1.50;;;1.50;;
10446;SDS011;5271;44.422;26.092;2023-04-06T05:11:57;1.20;;;1.20;;
10446;SDS011;5271;44.422;26.092;2023-04-06T05:14:24;1.30;;;1.30;;
10446;SDS011;5271;44.422;26.092;2023-04-06T05:16:51;1.30;;;1.30;;
10446;SDS011;5271;44.422;26.092;2023-04-06T05:19:18;1.30;;;1.30;;
10446;SDS011;5271;44.422;26.092;2023-04-06T05:21:45;1.30;;;1.30;;
10446;SDS011;5271;44.422;26.092;2023-04-06T05:24:13;1.43;;;1.43;;
10446;SDS011;5271;44.422;26.092;2023-04-06T05:26:40;1.30;;;1.30;;
10446;SDS011;5271;44.422;26.092;2023-04-06T05:29:07;1.40;;;1.40;;
10446;SDS011;5271;44.422;26.092;2023-04-06T05:31:34;1.50;;;1.50;;
10446;SDS011;5271;44.422;26.092;2023-04-06T05:34:01;1.50;;;1.50;;
10446;SDS011;5271;44.422;26.092;2023-04-06T05:36:28;1.50;;;1.50;;
10446;SDS011;5271;44.422;26.092;2023-04-06T05:38:55;1.60;;;1.60;;
10446;SDS011;5271;44.422;26.092;2023-04-06T05:41:24;1.50;;;1.50;;
10446;SDS011;5271;44.422;26.092;2023-04-06T05:43:51;1.50;;;1.50;;
10446;SDS011;5271;44.422;26.092;2023-04-06T05:46:18;1.60;;;1.60;;
10446;SDS011;5271;44.422;26.092;2023-04-06T05:48:45;1.50;;;1.50;;
10446;SDS011;5271;44.422;26.092;2023-04-06T05:51:12;1.50;;;1.50;;
10446;SDS011;5271;44.422;26.092;2023-04-06T05:53:38;1.50;;;1.50;;
10446;SDS011;5271;44.422;26.092;2023-04-06T05:56:05;1.57;;;1.57;;
10446;SDS011;5271;44.422;26.092;2023-04-06T05:58:34;1.50;;;1.50;;
10446;SDS011;5271;44.422;26.092;2023-04-06T06:01:01;1.50;;;1.50;;
10446;SDS011;5271;44.422;26.092;2023-04-06T06:03:29;1.50;;;1.50;;
10446;SDS011;5271;44.422;26.092;2023-04-06T06:05:59;1.47;;;1.47;;
10446;SDS011;5271;44.422;26.092;2023-04-06T06:08:26;1.50;;;1.50;;
10446;SDS011;5271;44.422;26.092;2023-04-06T06:10:53;1.50;;;1.50;;
10446;SDS011;5271;44.422;26.092;2023-04-06T06:13:20;1.50;;;1.50;;
10446;SDS011;5271;44.422;26.092;2023-04-06T06:15:49;1.50;;;1.50;;
10446;SDS011;5271;44.422;26.092;2023-04-06T06:18:16;1.50;;;1.50;;
10446;SDS011;5271;44.422;26.092;2023-04-06T06:20:43;1.60;;;1.60;;
10446;SDS011;5271;44.422;26.092;2023-04-06T06:23:10;1.50;;;1.50;;
10446;SDS011;5271;44.422;26.092;2023-04-06T06:25:36;1.53;;;1.53;;
10446;SDS011;5271;44.422;26.092;2023-04-06T06:28:03;1.50;;;1.50;;
10446;SDS011;5271;44.422;26.092;2023-04-06T06:30:30;1.50;;;1.50;;
10446;SDS011;5271;44.422;26.092;2023-04-06T06:32:58;1.50;;;1.50;;
10446;SDS011;5271;44.422;26.092;2023-04-06T06:35:25;1.40;;;1.40;;
10446;SDS011;5271;44.422;26.092;2023-04-06T06:37:52;1.40;;;1.40;;
10446;SDS011;5271;44.422;26.092;2023-04-06T06:40:19;1.60;;;1.60;;
10446;SDS011;5271;44.422;26.092;2023-04-06T06:42:48;1.60;;;1.60;;
10446;SDS011;5271;44.422;26.092;2023-04-06T06:45:16;1.57;;;1.57;;
10446;SDS011;5271;44.422;26.092;2023-04-06T06:47:43;1.50;;;1.50;;
10446;SDS011;5271;44.422;26.092;2023-04-06T06:50:11;1.50;;;1.50;;
10446;SDS011;5271;44.422;26.092;2023-04-06T06:52:39;1.60;;;1.60;;
10446;SDS011;5271;44.422;26.092;2023-04-06T06:55:07;1.60;;;1.60;;
10446;SDS011;5271;44.422;26.092;2023-04-06T06:57:35;1.53;;;1.53;;
10446;SDS011;5271;44.422;26.092;2023-04-06T07:00:03;1.50;;;1.50;;
10446;SDS011;5271;44.422;26.092;2023-04-06T07:02:31;1.50;;;1.50;;
10446;SDS011;5271;44.422;26.092;2023-04-06T07:05:00;1.57;;;1.57;;
10446;SDS011;5271;44.422;26.092;2023-04-06T07:07:28;1.50;;;1.50;;
10446;SDS011;5271;44.422;26.092;2023-04-06T07:09:55;1.50;;;1.50;;
10446;SDS011;5271;44.422;26.092;2023-04-06T07:12:22;1.50;;;1.50;;
10446;SDS011;5271;44.422;26.092;2023-04-06T07:14:49;1.40;;;1.40;;
10446;SDS011;5271;44.422;26.092;2023-04-06T07:17:16;1.40;;;1.40;;
10446;SDS011;5271;44.422;26.092;2023-04-06T07:19:43;1.40;;;1.40;;
10446;SDS011;5271;44.422;26.092;2023-04-06T07:22:10;1.40;;;1.40;;
10446;SDS011;5271;44.422;26.092;2023-04-06T07:24:38;1.40;;;1.40;;
10446;SDS011;5271;44.422;26.092;2023-04-06T07:27:05;1.40;;;1.40;;
10446;SDS011;5271;44.422;26.092;2023-04-06T07:29:32;1.50;;;1.50;;
10446;SDS011;5271;44.422;26.092;2023-04-06T07:31:59;1.40;;;1.40;;
10446;SDS011;5271;44.422;26.092;2023-04-06T07:34:26;1.40;;;1.40;;
10446;SDS011;5271;44.422;26.092;2023-04-06T07:36:52;1.40;;;1.40;;
10446;SDS011;5271;44.422;26.092;2023-04-06T07:39:19;1.40;;;1.40;;
10446;SDS011;5271;44.422;26.092;2023-04-06T07:41:48;1.40;;;1.40;;
10446;SDS011;5271;44.422;26.092;2023-04-06T07:44:14;1.33;;;1.33;;
10446;SDS011;5271;44.422;26.092;2023-04-06T07:46:41;1.40;;;1.40;;
10446;SDS011;5271;44.422;26.092;2023-04-06T07:49:08;1.30;;;1.30;;
10446;SDS011;5271;44.422;26.092;2023-04-06T07:51:35;1.30;;;1.30;;
10446;SDS011;5271;44.422;26.092;2023-04-06T07:54:02;1.30;;;1.30;;
10446;SDS011;5271;44.422;26.092;2023-04-06T07:56:29;1.30;;;1.30;;
10446;SDS011;5271;44.422;26.092;2023-04-06T07:58:58;1.30;;;1.30;;
10446;SDS011;5271;44.422;26.092;2023-04-06T08:01:24;1.40;;;1.40;;
10446;SDS011;5271;44.422;26.092;2023-04-06T08:03:54;1.30;;;1.30;;
10446;SDS011;5271;44.422;26.092;2023-04-06T08:06:21;1.10;;;1.10;;
10446;SDS011;5271;44.422;26.092;2023-04-06T08:08:48;1.10;;;1.10;;
10446;SDS011;5271;44.422;26.092;2023-04-06T08:11:15;1.07;;;1.07;;
10446;SDS011;5271;44.422;26.092;2023-04-06T08:13:42;0.90;;;0.90;;
10446;SDS011;5271;44.422;26.092;2023-04-06T08:16:11;0.80;;;0.80;;
10446;SDS011;5271;44.422;26.092;2023-04-06T08:18:38;0.80;;;0.80;;
10446;SDS011;5271;44.422;26.092;2023-04-06T08:21:04;0.80;;;0.80;;
10446;SDS011;5271;44.422;26.092;2023-04-06T08:23:31;0.70;;;0.70;;
10446;SDS011;5271;44.422;26.092;2023-04-06T08:25:59;0.70;;;0.70;;
10446;SDS011;5271;44.422;26.092;2023-04-06T08:28:25;0.70;;;0.70;;
10446;SDS011;5271;44.422;26.092;2023-04-06T08:30:52;0.60;;;0.60;;
10446;SDS011;5271;44.422;26.092;2023-04-06T08:33:21;0.70;;;0.70;;
10446;SDS011;5271;44.422;26.092;2023-04-06T08:35:47;0.80;;;0.80;;
10446;SDS011;5271;44.422;26.092;2023-04-06T08:38:14;0.83;;;0.83;;
10446;SDS011;5271;44.422;26.092;2023-04-06T08:40:41;0.90;;;0.90;;
10446;SDS011;5271;44.422;26.092;2023-04-06T08:43:10;0.97;;;0.97;;
10446;SDS011;5271;44.422;26.092;2023-04-06T08:45:40;1.00;;;1.00;;
10446;SDS011;5271;44.422;26.092;2023-04-06T08:48:07;0.93;;;0.93;;
10446;SDS011;5271;44.422;26.092;2023-04-06T08:50:37;0.90;;;0.90;;
10446;SDS011;5271;44.422;26.092;2023-04-06T08:53:05;0.90;;;0.90;;
10446;SDS011;5271;44.422;26.092;2023-04-06T08:55:33;1.00;;;1.00;;
10446;SDS011;5271;44.422;26.092;2023-04-06T08:58:01;0.90;;;0.90;;
10446;SDS011;5271;44.422;26.092;2023-04-06T09:00:29;1.00;;;1.00;;
10446;SDS011;5271;44.422;26.092;2023-04-06T09:02:56;1.00;;;1.00;;
10446;SDS011;5271;44.422;26.092;2023-04-06T09:05:24;1.00;;;1.00;;
10446;SDS011;5271;44.422;26.092;2023-04-06T09:07:53;0.90;;;0.90;;
10446;SDS011;5271;44.422;26.092;2023-04-06T09:10:20;0.93;;;0.93;;
10446;SDS011;5271;44.422;26.092;2023-04-06T09:12:48;1.00;;;1.00;;
10446;SDS011;5271;44.422;26.092;2023-04-06T09:15:19;0.90;;;0.90;;
10446;SDS011;5271;44.422;26.092;2023-04-06T09:17:46;0.90;;;0.90;;
10446;SDS011;5271;44.422;26.092;2023-04-06T09:20:13;0.90;;;0.90;;
10446;SDS011;5271;44.422;26.092;2023-04-06T09:22:42;0.90;;;0.90;;
10446;SDS011;5271;44.422;26.092;2023-04-06T09:25:17;0.90;;;0.90;;
10446;SDS011;5271;44.422;26.092;2023-04-06T09:27:45;0.90;;;0.90;;
10446;SDS011;5271;44.422;26.092;2023-04-06T09:30:13;0.87;;;0.87;;
10446;SDS011;5271;44.422;26.092;2023-04-06T09:32:45;0.90;;;0.90;;
10446;SDS011;5271;44.422;26.092;2023-04-06T09:35:13;0.90;;;0.90;;
10446;SDS011;5271;44.422;26.092;2023-04-06T09:37:41;0.90;;;0.90;;
10446;SDS011;5271;44.422;26.092;2023-04-06T09:40:10;0.90;;;0.90;;
10446;SDS011;5271;44.422;26.092;2023-04-06T09:42:40;0.80;;;0.80;;
10446;SDS011;5271;44.422;26.092;2023-04-06T09:45:07;0.80;;;0.80;;
10446;SDS011;5271;44.422;26.092;2023-04-06T09:47:35;0.80;;;0.80;;
10446;SDS011;5271;44.422;26.092;2023-04-06T09:50:03;0.80;;;0.80;;
10446;SDS011;5271;44.422;26.092;2023-04-06T09:52:30;0.80;;;0.80;;
10446;SDS011;5271;44.422;26.092;2023-04-06T09:55:01;0.80;;;0.80;;
10446;SDS011;5271;44.422;26.092;2023-04-06T09:57:35;0.80;;;0.80;;
10446;SDS011;5271;44.422;26.092;2023-04-06T10:00:08;0.80;;;0.80;;
10446;SDS011;5271;44.422;26.092;2023-04-06T10:02:40;0.77;;;0.77;;
10446;SDS011;5271;44.422;26.092;2023-04-06T10:05:13;0.80;;;0.80;;
10446;SDS011;5271;44.422;26.092;2023-04-06T10:07:45;0.90;;;0.90;;
10446;SDS011;5271;44.422;26.092;2023-04-06T10:10:15;0.80;;;0.80;;
10446;SDS011;5271;44.422;26.092;2023-04-06T10:12:44;0.80;;;0.80;;
10446;SDS011;5271;44.422;26.092;2023-04-06T10:15:13;0.90;;;0.90;;
10446;SDS011;5271;44.422;26.092;2023-04-06T10:17:40;0.80;;;0.80;;
10446;SDS011;5271;44.422;26.092;2023-04-06T10:20:09;0.80;;;0.80;;
10446;SDS011;5271;44.422;26.092;2023-04-06T10:22:41;0.80;;;0.80;;
10446;SDS011;5271;44.422;26.092;2023-04-06T10:25:15;0.80;;;0.80;;
10446;SDS011;5271;44.422;26.092;2023-04-06T10:27:44;0.80;;;0.80;;
10446;SDS011;5271;44.422;26.092;2023-04-06T10:30:11;0.80;;;0.80;;
10446;SDS011;5271;44.422;26.092;2023-04-06T10:32:42;0.80;;;0.80;;
10446;SDS011;5271;44.422;26.092;2023-04-06T10:35:09;0.80;;;0.80;;
10446;SDS011;5271;44.422;26.092;2023-04-06T10:37:50;0.70;;;0.70;;
10446;SDS011;5271;44.422;26.092;2023-04-06T10:40:19;0.80;;;0.80;;
10446;SDS011;5271;44.422;26.092;2023-04-06T10:42:54;0.80;;;0.80;;
10446;SDS011;5271;44.422;26.092;2023-04-06T10:45:23;0.80;;;0.80;;
10446;SDS011;5271;44.422;26.092;2023-04-06T10:47:52;0.83;;;0.83;;
10446;SDS011;5271;44.422;26.092;2023-04-06T10:50:19;0.80;;;0.80;;
10446;SDS011;5271;44.422;26.092;2023-04-06T10:52:47;0.80;;;0.80;;
10446;SDS011;5271;44.422;26.092;2023-04-06T10:55:24;0.80;;;0.80;;
10446;SDS011;5271;44.422;26.092;2023-04-06T10:57:54;0.70;;;0.70;;
10446;SDS011;5271;44.422;26.092;2023-04-06T11:00:21;0.70;;;0.70;;
10446;SDS011;5271;44.422;26.092;2023-04-06T11:02:48;0.73;;;0.73;;
10446;SDS011;5271;44.422;26.092;2023-04-06T11:05:14;0.70;;;0.70;;
10446;SDS011;5271;44.422;26.092;2023-04-06T11:07:42;0.80;;;0.80;;
10446;SDS011;5271;44.422;26.092;2023-04-06T11:10:10;0.80;;;0.80;;
10446;SDS011;5271;44.422;26.092;2023-04-06T11:12:37;0.90;;;0.90;;
10446;SDS011;5271;44.422;26.092;2023-04-06T11:15:06;0.80;;;0.80;;
10446;SDS011;5271;44.422;26.092;2023-04-06T11:17:36;0.90;;;0.90;;
10446;SDS011;5271;44.422;26.092;2023-04-06T11:20:04;0.80;;;0.80;;
10446;SDS011;5271;44.422;26.092;2023-04-06T11:22:35;0.90;;;0.90;;
10446;SDS011;5271;44.422;26.092;2023-04-06T11:25:05;0.90;;;0.90;;
10446;SDS011;5271;44.422;26.092;2023-04-06T11:27:33;0.90;;;0.90;;
10446;SDS011;5271;44.422;26.092;2023-04-06T11:30:00;0.90;;;0.90;;
10446;SDS011;5271;44.422;26.092;2023-04-06T11:32:29;0.90;;;0.90;;
10446;SDS011;5271;44.422;26.092;2023-04-06T11:34:57;0.90;;;0.90;;
10446;SDS011;5271;44.422;26.092;2023-04-06T11:37:26;0.90;;;0.90;;
10446;SDS011;5271;44.422;26.092;2023-04-06T11:39:54;0.90;;;0.90;;
10446;SDS011;5271;44.422;26.092;2023-04-06T11:42:22;0.83;;;0.83;;
10446;SDS011;5271;44.422;26.092;2023-04-06T11:44:50;0.80;;;0.80;;
10446;SDS011;5271;44.422;26.092;2023-04-06T11:47:18;0.80;;;0.80;;
10446;SDS011;5271;44.422;26.092;2023-04-06T11:49:47;0.80;;;0.80;;
10446;SDS011;5271;44.422;26.092;2023-04-06T11:52:15;0.70;;;0.70;;
10446;SDS011;5271;44.422;26.092;2023-04-06T11:54:43;0.80;;;0.80;;
10446;SDS011;5271;44.422;26.092;2023-04-06T11:57:11;0.80;;;0.80;;
10446;SDS011;5271;44.422;26.092;2023-04-06T11:59:38;0.70;;;0.70;;
10446;SDS011;5271;44.422;26.092;2023-04-06T12:02:05;0.80;;;0.80;;
10446;SDS011;5271;44.422;26.092;2023-04-06T12:04:32;0.70;;;0.70;;
10446;SDS011;5271;44.422;26.092;2023-04-06T12:07:00;0.77;;;0.77;;
10446;SDS011;5271;44.422;26.092;2023-04-06T12:09:27;0.73;;;0.73;;
10446;SDS011;5271;44.422;26.092;2023-04-06T12:11:54;0.80;;;0.80;;
10446;SDS011;5271;44.422;26.092;2023-04-06T12:14:21;0.80;;;0.80;;
10446;SDS011;5271;44.422;26.092;2023-04-06T12:16:48;0.70;;;0.70;;
10446;SDS011;5271;44.422;26.092;2023-04-06T12:19:15;0.80;;;0.80;;
10446;SDS011;5271;44.422;26.092;2023-04-06T12:21:42;0.80;;;0.80;;
10446;SDS011;5271;44.422;26.092;2023-04-06T12:24:10;0.80;;;0.80;;
10446;SDS011;5271;44.422;26.092;2023-04-06T12:26:37;0.70;;;0.70;;
10446;SDS011;5271;44.422;26.092;2023-04-06T12:29:04;0.70;;;0.70;;
10446;SDS011;5271;44.422;26.092;2023-04-06T12:31:32;0.80;;;0.80;;
10446;SDS011;5271;44.422;26.092;2023-04-06T12:34:00;0.80;;;0.80;;
10446;SDS011;5271;44.422;26.092;2023-04-06T12:36:28;0.70;;;0.70;;
10446;SDS011;5271;44.422;26.092;2023-04-06T12:38:56;0.60;;;0.60;;
10446;SDS011;5271;44.422;26.092;2023-04-06T12:41:24;0.70;;;0.70;;
10446;SDS011;5271;44.422;26.092;2023-04-06T12:43:51;0.70;;;0.70;;
10446;SDS011;5271;44.422;26.092;2023-04-06T12:46:17;0.70;;;0.70;;
10446;SDS011;5271;44.422;26.092;2023-04-06T12:48:45;0.80;;;0.80;;
10446;SDS011;5271;44.422;26.092;2023-04-06T12:51:12;0.70;;;0.70;;
10446;SDS011;5271;44.422;26.092;2023-04-06T12:53:39;0.70;;;0.70;;
10446;SDS011;5271;44.422;26.092;2023-04-06T12:56:16;0.70;;;0.70;;
10446;SDS011;5271;44.422;26.092;2023-04-06T12:58:45;0.80;;;0.80;;
10446;SDS011;5271;44.422;26.092;2023-04-06T13:01:12;0.80;;;0.80;;
10446;SDS011;5271;44.422;26.092;2023-04-06T13:03:39;0.70;;;0.70;;
10446;SDS011;5271;44.422;26.092;2023-04-06T13:06:06;0.70;;;0.70;;
10446;SDS011;5271;44.422;26.092;2023-04-06T13:08:34;0.70;;;0.70;;
10446;SDS011;5271;44.422;26.092;2023-04-06T13:11:02;0.70;;;0.70;;
10446;SDS011;5271;44.422;26.092;2023-04-06T13:13:30;0.80;;;0.80;;
10446;SDS011;5271;44.422;26.092;2023-04-06T13:16:00;0.70;;;0.70;;
10446;SDS011;5271;44.422;26.092;2023-04-06T13:18:28;0.73;;;0.73;;
10446;SDS011;5271;44.422;26.092;2023-04-06T13:20:55;0.70;;;0.70;;
10446;SDS011;5271;44.422;26.092;2023-04-06T13:23:22;0.70;;;0.70;;
10446;SDS011;5271;44.422;26.092;2023-04-06T13:25:56;0.70;;;0.70;;
10446;SDS011;5271;44.422;26.092;2023-04-06T13:28:24;0.70;;;0.70;;
10446;SDS011;5271;44.422;26.092;2023-04-06T13:30:51;0.70;;;0.70;;
10446;SDS011;5271;44.422;26.092;2023-04-06T13:33:20;0.70;;;0.70;;
10446;SDS011;5271;44.422;26.092;2023-04-06T13:35:47;0.60;;;0.60;;
10446;SDS011;5271;44.422;26.092;2023-04-06T13:38:14;0.63;;;0.63;;
10446;SDS011;5271;44.422;26.092;2023-04-06T13:40:42;0.70;;;0.70;;
10446;SDS011;5271;44.422;26.092;2023-04-06T13:43:09;0.73;;;0.73;;
10446;SDS011;5271;44.422;26.092;2023-04-06T13:45:36;0.70;;;0.70;;
10446;SDS011;5271;44.422;26.092;2023-04-06T13:48:03;0.70;;;0.70;;
10446;SDS011;5271;44.422;26.092;2023-04-06T13:50:31;0.70;;;0.70;;
10446;SDS011;5271;44.422;26.092;2023-04-06T13:52:58;0.70;;;0.70;;
10446;SDS011;5271;44.422;26.092;2023-04-06T13:55:25;0.70;;;0.70;;
10446;SDS011;5271;44.422;26.092;2023-04-06T13:57:52;0.70;;;0.70;;
10446;SDS011;5271;44.422;26.092;2023-04-06T14:00:20;0.70;;;0.70;;
10446;SDS011;5271;44.422;26.092;2023-04-06T14:02:47;0.70;;;0.70;;
10446;SDS011;5271;44.422;26.092;2023-04-06T14:05:14;0.70;;;0.70;;
10446;SDS011;5271;44.422;26.092;2023-04-06T14:07:42;0.70;;;0.70;;
10446;SDS011;5271;44.422;26.092;2023-04-06T14:10:09;0.60;;;0.60;;
10446;SDS011;5271;44.422;26.092;2023-04-06T14:12:39;0.70;;;0.70;;
10446;SDS011;5271;44.422;26.092;2023-04-06T14:15:07;0.60;;;0.60;;
10446;SDS011;5271;44.422;26.092;2023-04-06T14:17:35;0.63;;;0.63;;
10446;SDS011;5271;44.422;26.092;2023-04-06T14:20:01;0.67;;;0.67;;
10446;SDS011;5271;44.422;26.092;2023-04-06T14:22:29;0.70;;;0.70;;
10446;SDS011;5271;44.422;26.092;2023-04-06T14:24:57;0.70;;;0.70;;
10446;SDS011;5271;44.422;26.092;2023-04-06T14:27:24;0.70;;;0.70;;
10446;SDS011;5271;44.422;26.092;2023-04-06T14:29:51;0.70;;;0.70;;
10446;SDS011;5271;44.422;26.092;2023-04-06T14:32:19;0.63;;;0.63;;
10446;SDS011;5271;44.422;26.092;2023-04-06T14:34:46;0.70;;;0.70;;
10446;SDS011;5271;44.422;26.092;2023-04-06T14:37:13;0.80;;;0.80;;
10446;SDS011;5271;44.422;26.092;2023-04-06T14:39:41;0.70;;;0.70;;
10446;SDS011;5271;44.422;26.092;2023-04-06T14:42:09;0.70;;;0.70;;
10446;SDS011;5271;44.422;26.092;2023-04-06T14:44:36;0.70;;;0.70;;
10446;SDS011;5271;44.422;26.092;2023-04-06T14:47:07;0.70;;;0.70;;
10446;SDS011;5271;44.422;26.092;2023-04-06T14:49:34;0.70;;;0.70;;